Time;durP1;ratioP1;P1;durP2;ratioP2;P2;SDS_P1;SDS_P2;PMS_P1;PMS_P2;Temp;Humidity;BMP_temperature;BMP_pressure;BME280_temperature;BME280_humidity;BME280_pressure;Samples;Min_cycle;Max_cycle;Signal;HPM_P1;HPM_P2
2023/08/29 00:01:17;;;;;;;12.07;3.80;;;14.80;99.90;;;;;;5044363;28;20455;-82
2023/08/29 00:03:44;;;;;;;9.70;3.60;;;14.80;99.90;;;;;;5042407;28;20048;-80
2023/08/29 00:06:11;;;;;;;9.43;3.72;;;14.80;99.90;;;;;;5046443;28;20299;-80
2023/08/29 00:08:40;;;;;;;10.73;3.85;;;14.80;99.90;;;;;;5096507;28;20036;-78
2023/08/29 00:11:07;;;;;;;11.73;3.90;;;14.80;99.90;;;;;;5065227;28;20037;-78
2023/08/29 00:13:34;;;;;;;9.38;3.63;;;14.80;99.90;;;;;;5083326;28;20128;-81
2023/08/29 00:16:01;;;;;;;11.10;3.53;;;14.80;99.90;;;;;;5038858;28;20047;-81
2023/08/29 00:18:28;;;;;;;9.98;3.80;;;14.70;99.90;;;;;;5091113;28;20377;-81
2023/08/29 00:20:54;;;;;;;11.23;3.28;;;14.70;99.90;;;;;;5067295;28;20110;-78
2023/08/29 00:23:22;;;;;;;9.73;3.38;;;14.80;99.90;;;;;;5059185;28;20055;-79
2023/08/29 00:25:49;;;;;;;7.85;3.10;;;14.80;99.90;;;;;;5038692;28;20110;-81
2023/08/29 00:28:17;;;;;;;12.68;3.85;;;14.70;99.90;;;;;;5066162;28;20355;-80
2023/08/29 00:30:44;;;;;;;15.13;3.83;;;14.80;99.90;;;;;;5053728;28;20444;-79
2023/08/29 00:33:11;;;;;;;9.98;3.70;;;14.70;99.90;;;;;;5081799;28;20068;-81
2023/08/29 00:35:38;;;;;;;10.55;3.25;;;14.70;99.90;;;;;;5050961;28;20534;-82
2023/08/29 00:38:05;;;;;;;10.38;3.45;;;14.70;99.90;;;;;;5071406;28;20123;-78
2023/08/29 00:40:33;;;;;;;9.82;3.05;;;14.70;99.90;;;;;;5029998;28;20067;-79
2023/08/29 00:43:00;;;;;;;11.35;3.45;;;14.70;99.90;;;;;;5051101;28;20144;-80
2023/08/29 00:45:27;;;;;;;12.30;4.10;;;14.70;99.90;;;;;;5046955;28;20466;-79
2023/08/29 00:47:56;;;;;;;9.23;3.55;;;14.70;99.90;;;;;;5042793;28;20060;-79
2023/08/29 00:50:25;;;;;;;12.05;3.85;;;14.70;99.90;;;;;;5075027;28;20105;-80
2023/08/29 00:52:54;;;;;;;14.35;3.45;;;14.70;99.90;;;;;;5061809;28;20132;-80
2023/08/29 00:55:21;;;;;;;12.98;3.55;;;14.70;99.90;;;;;;5094882;28;20066;-80
2023/08/29 00:57:50;;;;;;;13.13;3.22;;;14.70;99.90;;;;;;5081512;28;20041;-81
2023/08/29 01:00:17;;;;;;;9.60;3.17;;;14.70;99.90;;;;;;5085486;28;20125;-81
2023/08/29 01:02:44;;;;;;;11.52;3.25;;;14.70;99.90;;;;;;5089620;28;20139;-81
2023/08/29 01:05:11;;;;;;;13.30;3.70;;;14.70;99.90;;;;;;5095703;28;20054;-80
2023/08/29 01:07:39;;;;;;;13.85;3.25;;;14.70;99.90;;;;;;5094089;28;20108;-78
2023/08/29 01:10:06;;;;;;;10.88;3.40;;;14.80;99.90;;;;;;5086608;28;20068;-80
2023/08/29 01:12:33;;;;;;;11.15;2.97;;;14.70;99.90;;;;;;5086381;28;20044;-81
2023/08/29 01:14:59;;;;;;;7.25;3.08;;;14.80;99.90;;;;;;5089874;28;20037;-80
2023/08/29 01:17:26;;;;;;;8.48;3.17;;;14.80;99.90;;;;;;5074120;28;20049;-78
2023/08/29 01:19:53;;;;;;;7.78;3.05;;;14.70;99.90;;;;;;5091122;28;20048;-81
2023/08/29 01:22:20;;;;;;;13.05;3.45;;;14.70;99.90;;;;;;5094553;28;20467;-82
2023/08/29 01:24:46;;;;;;;7.90;3.05;;;14.70;99.90;;;;;;5094439;28;20134;-81
2023/08/29 01:27:15;;;;;;;10.45;3.33;;;14.70;99.90;;;;;;5091880;28;20067;-80
2023/08/29 01:29:41;;;;;;;9.27;3.50;;;14.70;99.90;;;;;;5094459;28;20131;-80
2023/08/29 01:32:08;;;;;;;8.73;3.72;;;14.70;99.90;;;;;;5079749;28;20028;-81
2023/08/29 01:34:35;;;;;;;10.45;3.25;;;14.70;99.90;;;;;;5093517;28;20048;-80
2023/08/29 01:37:04;;;;;;;9.60;3.22;;;14.70;99.90;;;;;;5094064;28;20416;-80
2023/08/29 01:39:34;;;;;;;12.93;3.47;;;14.80;99.90;;;;;;5082813;28;20044;-79
2023/08/29 01:42:01;;;;;;;9.27;3.40;;;14.70;99.90;;;;;;5073516;28;20133;-79
2023/08/29 01:44:28;;;;;;;9.23;3.15;;;14.80;99.90;;;;;;5085175;28;20044;-80
2023/08/29 01:46:55;;;;;;;10.25;3.20;;;14.80;99.90;;;;;;5073343;28;20058;-80
2023/08/29 01:49:21;;;;;;;8.77;2.70;;;14.80;99.90;;;;;;5086359;28;20032;-80
2023/08/29 01:51:48;;;;;;;10.52;3.22;;;14.80;99.90;;;;;;5037432;28;20044;-78
2023/08/29 01:54:15;;;;;;;8.68;2.92;;;14.80;99.90;;;;;;5051539;28;20098;-79
2023/08/29 01:56:41;;;;;;;8.70;2.75;;;14.80;99.90;;;;;;5057335;28;20382;-80
2023/08/29 01:59:08;;;;;;;10.70;3.13;;;14.80;99.90;;;;;;5040381;28;20080;-80
2023/08/29 02:01:35;;;;;;;9.85;3.50;;;14.80;99.90;;;;;;5042649;28;20055;-78
2023/08/29 02:04:02;;;;;;;11.85;3.45;;;14.80;99.90;;;;;;5056821;28;20367;-79
2023/08/29 02:06:29;;;;;;;8.50;2.92;;;14.70;99.90;;;;;;5038159;28;20103;-81
2023/08/29 02:08:56;;;;;;;8.95;2.85;;;14.70;99.90;;;;;;5047818;28;20458;-79
2023/08/29 02:11:23;;;;;;;7.93;3.15;;;14.70;99.90;;;;;;5040588;28;20139;-81
2023/08/29 02:13:50;;;;;;;9.13;3.30;;;14.70;99.90;;;;;;5028383;28;20044;-78
2023/08/29 02:16:16;;;;;;;7.32;3.00;;;14.70;99.90;;;;;;5039519;28;20036;-79
2023/08/29 02:18:43;;;;;;;10.60;3.03;;;14.70;99.90;;;;;;5037233;28;20057;-78
2023/08/29 02:21:11;;;;;;;7.25;2.80;;;14.70;99.90;;;;;;5066689;28;20124;-81
2023/08/29 02:23:38;;;;;;;8.35;3.15;;;14.70;99.90;;;;;;5051485;28;20443;-79
2023/08/29 02:26:04;;;;;;;9.98;3.45;;;14.70;99.90;;;;;;5048237;28;20118;-79
2023/08/29 02:28:31;;;;;;;9.10;2.83;;;14.80;99.90;;;;;;5039397;28;20071;-79
2023/08/29 02:30:58;;;;;;;9.77;3.00;;;14.80;99.90;;;;;;5064575;28;20041;-80
2023/08/29 02:33:25;;;;;;;7.57;2.63;;;14.70;99.90;;;;;;5069191;28;20046;-80
2023/08/29 02:35:54;;;;;;;7.78;2.55;;;14.70;99.90;;;;;;5056370;28;20052;-80
2023/08/29 02:38:23;;;;;;;6.32;2.45;;;14.70;99.90;;;;;;5056942;28;20462;-79
2023/08/29 02:40:50;;;;;;;7.15;2.78;;;14.70;99.90;;;;;;5055980;28;20040;-81
2023/08/29 02:43:17;;;;;;;7.10;2.45;;;14.80;99.90;;;;;;5056493;28;20041;-78
2023/08/29 02:45:44;;;;;;;7.20;2.55;;;14.70;99.90;;;;;;5074122;28;20356;-80
2023/08/29 02:48:11;;;;;;;7.97;2.42;;;14.70;99.90;;;;;;5044303;28;20083;-80
2023/08/29 02:50:37;;;;;;;10.55;2.80;;;14.70;99.90;;;;;;5071248;28;20106;-80
2023/08/29 02:53:04;;;;;;;7.32;2.55;;;14.70;99.90;;;;;;5092656;28;20066;-81
2023/08/29 02:55:31;;;;;;;10.15;2.80;;;14.60;99.90;;;;;;5096840;28;20121;-81
2023/08/29 02:57:58;;;;;;;8.75;2.60;;;14.60;99.90;;;;;;5077879;28;20101;-80
2023/08/29 03:00:24;;;;;;;8.45;2.92;;;14.50;99.90;;;;;;5076225;28;20426;-81
2023/08/29 03:02:51;;;;;;;7.30;2.63;;;14.50;99.90;;;;;;5077667;28;20455;-81
2023/08/29 03:05:18;;;;;;;6.03;2.40;;;14.50;99.90;;;;;;5060538;28;20082;-79
2023/08/29 03:07:46;;;;;;;7.32;2.80;;;14.50;99.90;;;;;;5070470;28;20068;-79
2023/08/29 03:10:13;;;;;;;9.13;2.70;;;14.40;99.90;;;;;;5099003;28;20093;-80
2023/08/29 03:12:40;;;;;;;10.07;3.00;;;14.40;99.90;;;;;;5080002;28;20072;-80
2023/08/29 03:15:06;;;;;;;9.40;3.22;;;14.40;99.90;;;;;;5060466;28;20066;-79
2023/08/29 03:17:34;;;;;;;7.97;2.60;;;14.40;99.90;;;;;;5087959;28;20056;-82
2023/08/29 03:20:02;;;;;;;7.65;2.55;;;14.40;99.90;;;;;;5092349;28;20037;-80
2023/08/29 03:22:29;;;;;;;8.27;2.78;;;14.40;99.90;;;;;;5087529;28;20105;-79
2023/08/29 03:24:56;;;;;;;6.95;2.58;;;14.40;99.90;;;;;;5096564;28;20052;-78
2023/08/29 03:27:23;;;;;;;9.35;2.55;;;14.40;99.90;;;;;;5087556;28;20509;-79
2023/08/29 03:29:50;;;;;;;8.15;2.65;;;14.50;99.90;;;;;;5073745;28;20078;-81
2023/08/29 03:32:17;;;;;;;11.05;3.22;;;14.50;99.90;;;;;;5082720;28;20064;-79
2023/08/29 03:34:43;;;;;;;7.13;2.50;;;14.50;99.90;;;;;;5067607;28;20383;-79
2023/08/29 03:37:10;;;;;;;7.65;2.53;;;14.50;99.90;;;;;;5094770;28;20071;-80
2023/08/29 03:39:39;;;;;;;8.30;2.40;;;14.40;99.90;;;;;;5095976;28;20082;-79
2023/08/29 03:42:06;;;;;;;6.38;2.42;;;14.40;99.90;;;;;;5083424;28;20097;-80
2023/08/29 03:44:33;;;;;;;10.32;2.75;;;14.50;99.90;;;;;;5097396;28;20036;-80
2023/08/29 03:47:01;;;;;;;5.47;2.13;;;14.40;99.90;;;;;;5081384;28;20524;-81
2023/08/29 03:49:28;;;;;;;8.18;2.80;;;14.40;99.90;;;;;;5073545;28;20048;-81
2023/08/29 03:51:55;;;;;;;6.97;2.55;;;14.50;99.90;;;;;;5057333;28;20037;-81
2023/08/29 03:54:22;;;;;;;8.32;2.40;;;14.50;99.90;;;;;;5024860;28;20043;-80
2023/08/29 03:56:49;;;;;;;6.53;2.33;;;14.50;99.90;;;;;;5050446;28;20136;-79
2023/08/29 03:59:17;;;;;;;10.63;2.50;;;14.50;99.90;;;;;;5071453;28;20036;-79
2023/08/29 04:01:45;;;;;;;10.98;2.75;;;14.50;99.90;;;;;;5058764;28;20050;-81
2023/08/29 04:04:11;;;;;;;7.03;2.25;;;14.50;99.90;;;;;;5063470;28;20494;-79
2023/08/29 04:06:39;;;;;;;6.93;2.50;;;14.50;99.90;;;;;;5074348;28;20041;-79
2023/08/29 04:09:08;;;;;;;8.95;2.60;;;14.50;99.90;;;;;;5059002;28;20067;-79
2023/08/29 04:11:35;;;;;;;8.18;2.17;;;14.50;99.90;;;;;;5058711;28;20036;-79
2023/08/29 04:14:01;;;;;;;6.88;2.10;;;14.50;99.90;;;;;;5058229;28;20109;-78
2023/08/29 04:16:28;;;;;;;7.35;2.55;;;14.50;99.90;;;;;;5056853;28;20040;-79
2023/08/29 04:18:55;;;;;;;9.15;2.60;;;14.50;99.90;;;;;;5064919;28;20066;-81
2023/08/29 04:21:22;;;;;;;10.90;2.78;;;14.50;99.90;;;;;;5057805;28;20424;-80
2023/08/29 04:23:48;;;;;;;5.80;2.22;;;14.50;99.90;;;;;;5069729;28;20059;-81
2023/08/29 04:26:15;;;;;;;6.45;2.38;;;14.50;99.90;;;;;;5055630;28;20107;-79
2023/08/29 04:28:42;;;;;;;10.55;2.30;;;14.50;99.90;;;;;;5043483;28;20051;-80
2023/08/29 04:31:09;;;;;;;7.13;2.50;;;14.50;99.90;;;;;;5059240;28;20418;-81
2023/08/29 04:33:36;;;;;;;8.40;2.33;;;14.50;99.90;;;;;;5057718;28;20098;-80
2023/08/29 04:36:02;;;;;;;4.25;1.77;;;14.50;99.90;;;;;;5049341;28;20090;-81
2023/08/29 04:38:31;;;;;;;6.28;2.05;;;14.60;99.90;;;;;;5040218;28;20065;-81
2023/08/29 04:40:58;;;;;;;6.50;2.20;;;14.50;99.90;;;;;;5050013;28;20056;-80
2023/08/29 04:43:24;;;;;;;5.60;2.05;;;14.60;99.90;;;;;;5052677;28;20044;-79
2023/08/29 04:45:51;;;;;;;4.85;1.90;;;14.50;99.90;;;;;;5075822;28;20105;-80
2023/08/29 04:48:18;;;;;;;6.85;2.17;;;14.50;99.90;;;;;;5057588;28;20171;-80
2023/08/29 04:50:45;;;;;;;7.55;2.28;;;14.50;99.90;;;;;;5075929;28;20055;-78
2023/08/29 04:53:14;;;;;;;6.68;2.38;;;14.50;99.90;;;;;;5081260;28;21094;-79
2023/08/29 04:55:41;;;;;;;6.63;2.17;;;14.50;99.90;;;;;;5094727;28;20062;-79
2023/08/29 04:58:08;;;;;;;7.07;2.00;;;14.50;99.90;;;;;;5080476;28;20089;-81
2023/08/29 05:00:35;;;;;;;10.00;2.25;;;14.50;99.90;;;;;;5094089;28;20524;-81
2023/08/29 05:03:04;;;;;;;7.90;2.50;;;14.50;99.90;;;;;;5094690;28;20040;-81
2023/08/29 05:05:31;;;;;;;9.45;2.20;;;14.50;99.90;;;;;;5081018;28;20036;-81
2023/08/29 05:07:58;;;;;;;7.95;2.50;;;14.40;99.90;;;;;;5071964;28;20044;-79
2023/08/29 05:10:26;;;;;;;6.40;2.10;;;14.40;99.90;;;;;;5078128;28;20055;-81
2023/08/29 05:12:53;;;;;;;7.00;2.40;;;14.40;99.90;;;;;;5094638;28;20040;-80
2023/08/29 05:15:19;;;;;;;8.15;2.13;;;14.40;99.90;;;;;;5081834;28;20463;-78
2023/08/29 05:17:49;;;;;;;7.10;1.85;;;14.40;99.90;;;;;;5077272;28;20121;-79
2023/08/29 05:20:16;;;;;;;5.55;2.30;;;14.40;99.90;;;;;;5093904;28;20078;-80
2023/08/29 05:22:43;;;;;;;5.82;2.08;;;14.50;99.90;;;;;;5094784;28;20035;-79
2023/08/29 05:25:10;;;;;;;6.10;1.92;;;14.50;99.90;;;;;;5081120;28;20040;-81
2023/08/29 05:27:38;;;;;;;6.00;2.10;;;14.50;99.90;;;;;;5069473;28;20068;-81
2023/08/29 05:30:05;;;;;;;7.50;2.10;;;14.60;99.90;;;;;;5084602;28;20123;-79
2023/08/29 05:32:32;;;;;;;9.25;2.30;;;14.60;99.90;;;;;;5079096;28;20041;-79
2023/08/29 05:34:58;;;;;;;8.65;2.28;;;14.60;99.90;;;;;;5088296;28;20401;-79
2023/08/29 05:37:28;;;;;;;6.28;2.40;;;14.60;99.90;;;;;;5088230;28;20493;-80
2023/08/29 05:39:54;;;;;;;9.50;2.30;;;14.70;99.90;;;;;;5087514;28;20110;-80
2023/08/29 05:42:22;;;;;;;7.03;1.85;;;14.70;99.90;;;;;;5057861;28;20117;-78
2023/08/29 05:44:49;;;;;;;6.40;2.28;;;14.80;99.90;;;;;;5085530;28;20048;-80
2023/08/29 05:47:16;;;;;;;7.55;2.22;;;14.80;99.90;;;;;;5078540;28;20040;-78
2023/08/29 05:49:43;;;;;;;6.93;1.92;;;14.80;99.90;;;;;;5084838;28;20059;-78
2023/08/29 05:52:09;;;;;;;7.20;2.15;;;14.80;99.90;;;;;;5078925;28;20055;-80
2023/08/29 05:54:36;;;;;;;7.18;2.00;;;14.90;99.90;;;;;;5077978;28;20141;-77
2023/08/29 05:59:50;;;;;;;9.68;2.90;;;14.90;99.90;;;;;;5070519;28;20048;-79
2023/08/29 06:02:17;;;;;;;6.03;2.17;;;14.90;99.90;;;;;;5086350;28;20044;-80
2023/08/29 06:04:43;;;;;;;5.30;2.22;;;14.90;99.90;;;;;;5073493;28;20435;-81
2023/08/29 06:07:12;;;;;;;6.03;2.13;;;14.90;99.90;;;;;;5046269;28;20060;-80
2023/08/29 06:09:42;;;;;;;8.77;2.30;;;14.90;99.90;;;;;;5068527;28;20041;-79
2023/08/29 06:12:09;;;;;;;7.65;2.22;;;15.00;99.90;;;;;;5054380;28;20506;-81
2023/08/29 06:14:36;;;;;;;6.85;2.20;;;15.00;99.90;;;;;;5053510;28;20056;-80
2023/08/29 06:17:03;;;;;;;11.82;2.20;;;15.10;99.90;;;;;;5054268;28;20420;-81
2023/08/29 06:19:29;;;;;;;10.27;2.10;;;15.10;99.90;;;;;;5050318;28;20044;-81
2023/08/29 06:21:56;;;;;;;8.98;2.28;;;15.20;99.90;;;;;;5075325;28;20132;-80
2023/08/29 06:24:23;;;;;;;8.02;2.20;;;15.20;99.90;;;;;;5077114;28;20075;-80
2023/08/29 06:26:50;;;;;;;10.05;2.15;;;15.30;99.90;;;;;;5086517;28;20072;-79
2023/08/29 06:29:17;;;;;;;7.00;2.03;;;15.40;99.90;;;;;;5066026;28;20071;-78
2023/08/29 06:31:44;;;;;;;6.57;2.10;;;15.40;99.90;;;;;;5058702;28;20052;-80
2023/08/29 06:34:11;;;;;;;7.95;2.17;;;15.40;99.90;;;;;;5040311;28;20066;-79
2023/08/29 06:36:38;;;;;;;7.05;2.40;;;15.50;99.90;;;;;;5072379;28;20094;-81
2023/08/29 06:39:05;;;;;;;5.70;1.88;;;15.50;99.90;;;;;;5054532;28;20463;-81
2023/08/29 06:41:32;;;;;;;6.60;2.28;;;15.60;99.90;;;;;;5040303;28;20076;-80
2023/08/29 06:43:59;;;;;;;6.35;2.13;;;15.60;99.90;;;;;;5067571;28;20052;-82
2023/08/29 06:46:28;;;;;;;6.00;2.03;;;15.70;99.90;;;;;;5064559;28;20041;-82
2023/08/29 06:48:54;;;;;;;6.18;1.88;;;15.70;99.90;;;;;;5069378;28;20047;-79
2023/08/29 06:51:21;;;;;;;6.45;2.33;;;15.80;99.90;;;;;;5072437;28;20057;-78
2023/08/29 06:53:48;;;;;;;5.75;2.28;;;15.90;99.90;;;;;;5060319;28;20107;-81
2023/08/29 06:56:15;;;;;;;12.18;2.92;;;15.90;99.90;;;;;;5067138;28;20036;-80
2023/08/29 06:58:42;;;;;;;5.78;2.13;;;15.90;99.90;;;;;;5072589;28;20051;-80
2023/08/29 07:01:08;;;;;;;9.63;2.25;;;16.00;99.90;;;;;;5043056;28;20049;-79
2023/08/29 07:03:35;;;;;;;6.35;2.15;;;16.00;99.90;;;;;;5077069;28;20055;-79
2023/08/29 07:06:02;;;;;;;6.38;2.42;;;16.00;99.90;;;;;;5051460;28;20045;-81
2023/08/29 07:08:29;;;;;;;6.50;2.33;;;16.10;99.90;;;;;;5035029;28;20106;-78
2023/08/29 07:10:56;;;;;;;7.38;2.30;;;16.10;99.90;;;;;;5052897;28;20041;-81
2023/08/29 07:13:22;;;;;;;8.15;2.30;;;16.20;99.90;;;;;;5052502;28;20040;-79
2023/08/29 07:15:49;;;;;;;6.78;2.28;;;16.30;99.90;;;;;;5050033;28;20044;-80
2023/08/29 07:18:17;;;;;;;8.73;2.15;;;16.40;99.90;;;;;;5057464;28;20044;-79
2023/08/29 07:20:44;;;;;;;6.93;2.38;;;16.40;99.90;;;;;;5042265;28;20118;-82
2023/08/29 07:23:11;;;;;;;6.45;2.42;;;16.40;99.90;;;;;;5059017;28;20424;-80
2023/08/29 07:25:38;;;;;;;9.57;2.50;;;16.40;99.90;;;;;;5051982;28;20479;-79
2023/08/29 07:28:05;;;;;;;8.65;2.97;;;16.50;99.90;;;;;;5070622;28;20437;-80
2023/08/29 07:30:33;;;;;;;8.52;2.20;;;16.50;99.90;;;;;;5057580;28;20115;-81
2023/08/29 07:33:02;;;;;;;7.72;2.47;;;16.50;99.90;;;;;;5050713;28;20478;-78
2023/08/29 07:35:29;;;;;;;7.40;2.47;;;16.40;99.90;;;;;;5069497;28;20041;-81
2023/08/29 07:37:57;;;;;;;6.07;1.90;;;16.50;99.90;;;;;;5065994;28;20130;-81
2023/08/29 07:40:23;;;;;;;7.70;2.10;;;16.50;99.90;;;;;;5059830;28;20463;-78
2023/08/29 07:42:50;;;;;;;6.13;2.10;;;16.70;99.90;;;;;;5071465;28;20526;-81
2023/08/29 07:45:17;;;;;;;9.55;2.35;;;16.80;99.90;;;;;;5073381;28;20072;-80
2023/08/29 07:47:44;;;;;;;7.32;2.47;;;16.90;99.90;;;;;;5046196;28;20471;-81
2023/08/29 07:50:11;;;;;;;6.47;1.92;;;16.90;99.90;;;;;;5058555;28;20417;-81
2023/08/29 07:52:38;;;;;;;6.20;2.00;;;17.00;99.90;;;;;;5090069;28;20051;-81
2023/08/29 07:55:10;;;;;;;;;;;17.00;99.90;;;;;;5085296;28;20412;-78
2023/08/29 07:57:37;;;;;;;8.32;2.28;;;17.00;99.90;;;;;;5096431;28;19924;-79
2023/08/29 08:00:05;;;;;;;6.18;1.88;;;17.10;99.90;;;;;;5088529;28;20052;-81
2023/08/29 08:02:38;;;;;;;7.32;2.13;;;17.10;99.90;;;;;;5089342;28;20044;-80
2023/08/29 08:05:05;;;;;;;6.25;2.10;;;17.20;99.90;;;;;;5087520;28;20052;-80
2023/08/29 08:07:34;;;;;;;6.35;1.83;;;17.20;99.90;;;;;;5067263;28;20044;-79
2023/08/29 08:10:00;;;;;;;5.93;2.25;;;17.30;99.90;;;;;;5087556;28;20031;-79
2023/08/29 08:12:27;;;;;;;7.15;1.90;;;17.40;99.90;;;;;;5086510;28;20044;-79
2023/08/29 08:14:54;;;;;;;5.47;2.00;;;17.40;99.90;;;;;;5085637;28;20048;-80
2023/08/29 08:17:21;;;;;;;5.97;2.20;;;17.50;99.90;;;;;;5063493;28;20036;-80
2023/08/29 08:19:48;;;;;;;8.15;2.28;;;17.50;99.90;;;;;;5091096;28;20042;-78
2023/08/29 08:22:14;;;;;;;11.90;2.40;;;17.60;99.90;;;;;;5096586;28;20036;-79
2023/08/29 08:24:41;;;;;;;10.30;1.90;;;17.60;99.90;;;;;;5096533;28;20051;-78
2023/08/29 08:27:10;;;;;;;10.90;2.00;;;17.80;99.90;;;;;;5095484;28;20040;-82
2023/08/29 08:29:36;;;;;;;8.82;2.60;;;17.90;99.90;;;;;;5095385;28;20052;-79
2023/08/29 08:32:03;;;;;;;8.75;3.22;;;17.90;99.90;;;;;;5092268;28;20471;-82
2023/08/29 08:34:30;;;;;;;7.57;2.53;;;18.00;99.90;;;;;;5086601;28;20043;-85
2023/08/29 08:36:58;;;;;;;10.45;2.70;;;18.00;99.90;;;;;;5096376;28;20056;-84
2023/08/29 08:39:25;;;;;;;9.00;2.15;;;18.00;99.90;;;;;;5086768;28;20051;-83
2023/08/29 08:41:51;;;;;;;5.97;2.00;;;18.10;99.90;;;;;;5090366;28;20048;-82
2023/08/29 08:44:18;;;;;;;6.97;2.15;;;18.30;99.90;;;;;;5083147;28;20048;-81
2023/08/29 08:46:47;;;;;;;7.43;2.10;;;18.30;99.90;;;;;;5081977;28;20044;-84
2023/08/29 08:49:14;;;;;;;5.13;1.60;;;18.30;99.90;;;;;;5074505;28;20098;-82
2023/08/29 08:51:43;;;;;;;5.47;2.00;;;18.20;99.90;;;;;;5051176;28;20115;-83
2023/08/29 08:54:10;;;;;;;7.60;2.28;;;18.30;99.90;;;;;;5074235;28;20131;-81
2023/08/29 08:56:38;;;;;;;7.15;2.33;;;18.40;99.90;;;;;;5055749;28;20464;-82
2023/08/29 08:59:05;;;;;;;6.45;2.10;;;18.50;99.90;;;;;;5021920;28;20052;-85
2023/08/29 09:01:32;;;;;;;7.00;2.35;;;18.60;99.90;;;;;;5052113;28;20486;-79
2023/08/29 09:03:59;;;;;;;6.85;1.98;;;18.70;99.90;;;;;;5055614;28;20345;-79
2023/08/29 09:06:25;;;;;;;7.63;2.00;;;18.80;99.90;;;;;;5054397;28;20077;-83
2023/08/29 09:08:53;;;;;;;5.78;1.83;;;18.90;99.90;;;;;;5048564;28;20364;-82
2023/08/29 09:11:20;;;;;;;4.93;1.70;;;19.00;99.90;;;;;;5072097;28;20036;-82
2023/08/29 09:13:47;;;;;;;5.95;1.83;;;19.20;99.90;;;;;;5040998;28;20455;-85
2023/08/29 09:16:14;;;;;;;5.55;1.75;;;19.30;99.90;;;;;;5075229;28;20098;-85
2023/08/29 09:21:12;;;;;;;5.35;1.95;;;19.60;99.90;;;;;;5070992;28;20548;-84
2023/08/29 09:23:39;;;;;;;6.43;2.03;;;19.60;99.90;;;;;;5039511;28;20383;-80
2023/08/29 09:26:06;;;;;;;5.85;2.17;;;19.80;99.90;;;;;;5053551;28;20090;-86
2023/08/29 09:28:33;;;;;;;5.00;1.70;;;19.70;99.90;;;;;;5057107;28;20047;-86
2023/08/29 09:31:00;;;;;;;6.65;2.13;;;19.70;99.90;;;;;;5065929;28;20048;-84
2023/08/29 09:33:27;;;;;;;5.25;2.05;;;19.70;99.90;;;;;;5052220;28;20072;-83
2023/08/29 09:35:54;;;;;;;5.43;1.60;;;19.80;99.90;;;;;;5049199;28;20041;-81
2023/08/29 09:38:21;;;;;;;7.45;2.15;;;20.10;99.90;;;;;;5051867;28;20136;-82
2023/08/29 09:40:48;;;;;;;5.97;1.90;;;20.20;99.90;;;;;;5056918;28;20109;-80
2023/08/29 09:43:15;;;;;;;7.60;2.17;;;20.00;99.90;;;;;;5061996;28;20055;-81
2023/08/29 09:45:42;;;;;;;7.60;2.05;;;20.20;99.90;;;;;;5056371;28;20082;-82
2023/08/29 09:48:09;;;;;;;10.85;2.10;;;20.40;99.90;;;;;;5045740;28;20056;-83
2023/08/29 09:50:37;;;;;;;6.60;2.20;;;20.50;99.90;;;;;;5071922;28;20056;-80
2023/08/29 09:53:05;;;;;;;6.00;1.77;;;20.50;99.90;;;;;;5073919;28;20032;-80
2023/08/29 09:55:33;;;;;;;5.53;1.80;;;20.40;99.90;;;;;;5057191;28;20051;-81
2023/08/29 09:58:00;;;;;;;4.80;1.60;;;20.60;99.90;;;;;;5038882;28;20128;-81
2023/08/29 10:00:27;;;;;;;5.75;1.70;;;21.00;99.90;;;;;;5064401;28;20438;-81
2023/08/29 10:02:53;;;;;;;6.15;1.65;;;21.20;99.90;;;;;;5074350;28;20044;-81
2023/08/29 10:05:20;;;;;;;4.13;1.50;;;21.40;99.90;;;;;;5057021;28;20083;-80
2023/08/29 10:07:47;;;;;;;4.55;1.50;;;21.40;99.90;;;;;;5036190;28;20485;-81
2023/08/29 10:10:15;;;;;;;6.35;1.75;;;21.20;99.90;;;;;;5061670;28;20044;-80
2023/08/29 10:12:42;;;;;;;5.13;1.70;;;21.30;99.90;;;;;;5061178;28;20037;-81
2023/08/29 10:15:09;;;;;;;5.85;1.67;;;21.40;99.90;;;;;;5067628;28;20056;-81
2023/08/29 10:17:37;;;;;;;5.03;1.70;;;21.40;99.90;;;;;;5048048;28;20426;-82
2023/08/29 10:20:12;;;;;;;4.28;1.70;;;21.50;99.90;;;;;;5052317;28;20049;-80
2023/08/29 10:22:39;;;;;;;5.80;1.50;;;21.40;99.90;;;;;;5065562;28;20048;-81
2023/08/29 10:25:05;;;;;;;4.63;1.58;;;20.90;99.90;;;;;;5056914;28;20063;-82
2023/08/29 10:27:32;;;;;;;4.25;1.42;;;21.00;99.90;;;;;;5046666;28;20114;-82
2023/08/29 10:29:59;;;;;;;4.05;1.50;;;21.10;99.90;;;;;;5038164;28;20048;-80
2023/08/29 10:32:25;;;;;;;4.60;1.50;;;21.20;99.90;;;;;;5074407;28;20045;-81
2023/08/29 10:34:53;;;;;;;6.43;1.77;;;21.10;99.90;;;;;;5073451;28;20115;-82
2023/08/29 10:37:20;;;;;;;5.18;1.60;;;20.90;99.90;;;;;;5054720;28;20029;-83
2023/08/29 10:39:47;;;;;;;5.03;1.90;;;21.00;99.90;;;;;;5036281;28;20466;-83
2023/08/29 10:42:14;;;;;;;7.80;2.10;;;21.10;99.90;;;;;;5072817;28;20411;-83
2023/08/29 10:44:40;;;;;;;5.28;1.83;;;21.00;99.90;;;;;;5058068;28;20052;-82
2023/08/29 10:47:10;;;;;;;4.43;1.67;;;21.40;99.90;;;;;;5061032;28;20072;-85
2023/08/29 10:49:37;;;;;;;7.13;1.90;;;21.60;99.90;;;;;;5043205;28;20076;-86
2023/08/29 10:52:04;;;;;;;4.65;1.63;;;21.70;99.90;;;;;;5089926;28;20067;-82
2023/08/29 10:54:31;;;;;;;6.22;2.65;;;22.30;99.90;;;;;;5089909;28;20051;-84
2023/08/29 10:56:58;;;;;;;6.25;2.42;;;22.50;99.90;;;;;;5083984;28;20055;-85
2023/08/29 10:59:25;;;;;;;4.60;1.60;;;22.90;99.90;;;;;;5093739;28;20097;-84
2023/08/29 11:01:52;;;;;;;6.20;2.20;;;23.10;99.90;;;;;;5085978;28;20041;-82
2023/08/29 11:04:19;;;;;;;6.30;2.10;;;23.10;99.90;;;;;;5071163;28;20052;-84
2023/08/29 11:06:47;;;;;;;7.47;1.92;;;22.80;99.90;;;;;;5062159;28;20148;-82
2023/08/29 11:09:14;;;;;;;5.22;2.13;;;22.90;99.90;;;;;;5080802;28;20430;-84
2023/08/29 11:11:40;;;;;;;6.93;2.30;;;23.10;99.90;;;;;;5088828;28;20408;-84
2023/08/29 11:14:07;;;;;;;6.65;2.50;;;23.10;99.90;;;;;;5056088;28;20048;-83
2023/08/29 11:16:37;;;;;;;6.20;1.90;;;22.80;99.90;;;;;;5074536;28;20355;-87
2023/08/29 11:19:05;;;;;;;12.10;2.53;;;22.60;99.90;;;;;;5094380;28;20052;-87
2023/08/29 11:21:31;;;;;;;5.57;2.50;;;22.50;99.90;;;;;;5097863;28;20097;-86
2023/08/29 11:23:58;;;;;;;6.35;2.63;;;22.50;99.90;;;;;;5094355;28;20127;-88
2023/08/29 11:29:28;;;;;;;5.85;1.83;;;22.20;99.90;;;;;;5090819;28;20044;-89
2023/08/29 11:31:54;;;;;;;5.07;2.00;;;22.10;99.90;;;;;;5095824;28;20042;-88
2023/08/29 11:34:21;;;;;;;5.10;2.30;;;22.30;99.90;;;;;;5078816;28;20059;-91
2023/08/29 11:36:50;;;;;;;4.72;1.92;;;22.20;99.90;;;;;;5091935;28;20121;-84
2023/08/29 11:39:17;;;;;;;5.22;1.98;;;22.20;99.90;;;;;;5085895;28;20122;-84
2023/08/29 11:41:45;;;;;;;5.35;1.75;;;22.20;99.90;;;;;;5082204;28;20068;-81
2023/08/29 11:44:34;;;;;;;5.95;1.88;;;22.10;99.90;;;;;;5087555;28;20068;-82
2023/08/29 11:47:24;;;;;;;4.93;1.92;;;22.10;99.90;;;;;;5098598;28;20060;-81
2023/08/29 11:49:54;;;;;;;6.85;2.10;;;22.10;99.90;;;;;;5097523;28;20405;-80
2023/08/29 11:52:22;;;;;;;5.13;1.95;;;22.10;99.90;;;;;;5095947;28;20036;-83
2023/08/29 11:54:56;;;;;;;5.82;2.30;;;22.50;99.90;;;;;;5097363;28;20123;-89
2023/08/29 11:57:23;;;;;;;6.75;2.00;;;22.70;99.90;;;;;;5084479;28;20044;-85
2023/08/29 11:59:50;;;;;;;5.35;2.10;;;23.00;99.90;;;;;;5081089;28;20052;-88
2023/08/29 12:02:17;;;;;;;5.53;1.90;;;23.40;99.90;;;;;;5096982;28;20044;-84
2023/08/29 12:04:45;;;;;;;4.90;2.20;;;23.80;99.90;;;;;;5085758;28;20072;-85
2023/08/29 12:10:00;;;;;;;5.35;2.50;;;24.50;99.90;;;;;;5084018;28;20035;-89
2023/08/29 12:12:27;;;;;;;5.32;2.53;;;25.00;99.90;;;;;;5086964;28;20040;-86
2023/08/29 12:14:54;;;;;;;5.45;2.70;;;24.60;99.90;;;;;;5091106;28;20127;-86
2023/08/29 12:17:21;;;;;;;5.75;2.70;;;24.40;99.90;;;;;;5088304;28;20070;-89
2023/08/29 12:19:48;;;;;;;7.00;2.63;;;24.50;99.90;;;;;;5065548;28;20088;-84
2023/08/29 12:22:19;;;;;;;6.25;2.47;;;24.90;99.90;;;;;;5090089;28;20040;-86
2023/08/29 12:24:46;;;;;;;6.47;2.50;;;25.30;99.90;;;;;;5078084;28;20052;-86
2023/08/29 12:27:15;;;;;;;5.53;2.45;;;25.60;99.90;;;;;;5096516;28;20048;-85
2023/08/29 12:29:41;;;;;;;6.13;2.50;;;25.80;99.90;;;;;;5083711;28;20044;-83
2023/08/29 12:32:08;;;;;;;6.43;2.50;;;25.80;99.90;;;;;;5080213;28;20036;-89
2023/08/29 12:34:35;;;;;;;5.45;2.63;;;25.10;99.90;;;;;;5084804;28;20039;-86
2023/08/29 12:37:03;;;;;;;6.10;2.80;;;25.10;99.90;;;;;;5074200;28;20075;-86
2023/08/29 12:39:30;;;;;;;5.90;2.70;;;25.30;99.90;;;;;;5087497;28;20044;-87
2023/08/29 12:41:57;;;;;;;6.15;2.42;;;25.80;99.90;;;;;;5096982;28;20048;-89
2023/08/29 12:44:23;;;;;;;9.00;2.60;;;26.00;99.90;;;;;;5096740;28;20475;-87
2023/08/29 12:46:52;;;;;;;5.93;2.72;;;25.80;99.90;;;;;;5082580;28;20052;-89
2023/08/29 12:49:19;;;;;;;5.97;2.55;;;25.40;99.90;;;;;;5095814;28;20051;-84
2023/08/29 12:51:46;;;;;;;4.53;1.90;;;25.10;99.90;;;;;;5030861;28;20170;-86
2023/08/29 12:54:13;;;;;;;6.70;2.03;;;25.40;99.90;;;;;;5053130;28;20047;-86
2023/08/29 12:56:43;;;;;;;6.30;2.30;;;25.30;99.90;;;;;;5051402;28;20460;-85